sensor_id;sensor_type;location;lat;lon;timestamp;P1;durP1;ratioP1;P2;durP2;ratioP2
40995;SDS011;26723;57.478;12.066;2023-06-14T00:00:07;3.15;;;2.95;;
40995;SDS011;26723;57.478;12.066;2023-06-14T00:03:18;3.10;;;2.80;;
40995;SDS011;26723;57.478;12.066;2023-06-14T00:06:28;3.35;;;3.05;;
40995;SDS011;26723;57.478;12.066;2023-06-14T00:09:37;3.53;;;3.22;;
40995;SDS011;26723;57.478;12.066;2023-06-14T00:12:45;3.08;;;2.88;;
40995;SDS011;26723;57.478;12.066;2023-06-14T00:15:55;2.90;;;2.70;;
40995;SDS011;26723;57.478;12.066;2023-06-14T00:19:05;3.05;;;2.80;;
40995;SDS011;26723;57.478;12.066;2023-06-14T00:22:13;3.40;;;3.10;;
40995;SDS011;26723;57.478;12.066;2023-06-14T00:25:22;3.47;;;3.17;;
40995;SDS011;26723;57.478;12.066;2023-06-14T00:28:35;4.10;;;3.15;;
40995;SDS011;26723;57.478;12.066;2023-06-14T00:31:45;3.65;;;3.33;;
40995;SDS011;26723;57.478;12.066;2023-06-14T00:34:56;3.30;;;3.10;;
40995;SDS011;26723;57.478;12.066;2023-06-14T00:38:04;3.42;;;3.13;;
40995;SDS011;26723;57.478;12.066;2023-06-14T00:41:13;3.50;;;3.10;;
40995;SDS011;26723;57.478;12.066;2023-06-14T00:44:21;3.75;;;3.45;;
40995;SDS011;26723;57.478;12.066;2023-06-14T00:47:30;3.33;;;3.10;;
40995;SDS011;26723;57.478;12.066;2023-06-14T00:50:40;4.57;;;3.40;;
40995;SDS011;26723;57.478;12.066;2023-06-14T00:53:54;3.80;;;3.40;;
40995;SDS011;26723;57.478;12.066;2023-06-14T00:57:03;4.30;;;4.00;;
40995;SDS011;26723;57.478;12.066;2023-06-14T01:00:13;4.30;;;3.90;;
40995;SDS011;26723;57.478;12.066;2023-06-14T01:03:22;3.75;;;3.45;;
40995;SDS011;26723;57.478;12.066;2023-06-14T01:06:35;4.15;;;3.85;;
40995;SDS011;26723;57.478;12.066;2023-06-14T01:09:56;3.85;;;3.55;;
40995;SDS011;26723;57.478;12.066;2023-06-14T01:13:15;3.70;;;3.40;;
40995;SDS011;26723;57.478;12.066;2023-06-14T01:16:28;4.18;;;3.88;;
40995;SDS011;26723;57.478;12.066;2023-06-14T01:19:39;4.25;;;3.85;;
40995;SDS011;26723;57.478;12.066;2023-06-14T01:22:51;4.10;;;3.70;;
40995;SDS011;26723;57.478;12.066;2023-06-14T01:26:01;4.80;;;4.50;;
40995;SDS011;26723;57.478;12.066;2023-06-14T01:29:10;4.10;;;3.80;;
40995;SDS011;26723;57.478;12.066;2023-06-14T01:32:24;4.57;;;4.05;;
40995;SDS011;26723;57.478;12.066;2023-06-14T01:35:34;4.55;;;4.25;;
40995;SDS011;26723;57.478;12.066;2023-06-14T01:38:44;4.82;;;4.32;;
40995;SDS011;26723;57.478;12.066;2023-06-14T01:41:55;5.10;;;4.70;;
40995;SDS011;26723;57.478;12.066;2023-06-14T01:45:04;4.35;;;4.05;;
40995;SDS011;26723;57.478;12.066;2023-06-14T01:48:14;4.82;;;4.53;;
40995;SDS011;26723;57.478;12.066;2023-06-14T01:51:23;4.88;;;4.57;;
40995;SDS011;26723;57.478;12.066;2023-06-14T01:54:33;6.00;;;5.40;;
40995;SDS011;26723;57.478;12.066;2023-06-14T01:57:44;5.93;;;5.40;;
40995;SDS011;26723;57.478;12.066;2023-06-14T02:00:53;6.07;;;5.57;;
40995;SDS011;26723;57.478;12.066;2023-06-14T02:04:03;5.57;;;5.18;;
40995;SDS011;26723;57.478;12.066;2023-06-14T02:07:12;4.93;;;4.63;;
40995;SDS011;26723;57.478;12.066;2023-06-14T02:10:22;4.80;;;4.50;;
40995;SDS011;26723;57.478;12.066;2023-06-14T02:13:34;4.95;;;4.65;;
40995;SDS011;26723;57.478;12.066;2023-06-14T02:16:42;5.10;;;4.70;;
40995;SDS011;26723;57.478;12.066;2023-06-14T02:19:55;4.97;;;4.57;;
40995;SDS011;26723;57.478;12.066;2023-06-14T02:23:05;5.13;;;4.72;;
40995;SDS011;26723;57.478;12.066;2023-06-14T02:26:16;4.65;;;4.25;;
40995;SDS011;26723;57.478;12.066;2023-06-14T02:29:24;5.05;;;4.65;;
40995;SDS011;26723;57.478;12.066;2023-06-14T02:32:33;4.93;;;4.40;;
40995;SDS011;26723;57.478;12.066;2023-06-14T02:35:45;4.70;;;4.30;;
40995;SDS011;26723;57.478;12.066;2023-06-14T02:38:54;5.35;;;4.70;;
40995;SDS011;26723;57.478;12.066;2023-06-14T02:42:06;4.20;;;3.90;;
40995;SDS011;26723;57.478;12.066;2023-06-14T02:45:15;4.30;;;4.00;;
40995;SDS011;26723;57.478;12.066;2023-06-14T02:48:23;4.40;;;4.10;;
40995;SDS011;26723;57.478;12.066;2023-06-14T02:51:32;4.55;;;4.10;;
40995;SDS011;26723;57.478;12.066;2023-06-14T02:54:41;4.70;;;4.40;;
40995;SDS011;26723;57.478;12.066;2023-06-14T02:57:51;4.47;;;4.05;;
40995;SDS011;26723;57.478;12.066;2023-06-14T03:01:00;4.10;;;3.80;;
40995;SDS011;26723;57.478;12.066;2023-06-14T03:04:12;4.40;;;4.10;;
40995;SDS011;26723;57.478;12.066;2023-06-14T03:07:21;4.95;;;3.90;;
40995;SDS011;26723;57.478;12.066;2023-06-14T03:10:32;10.00;;;4.25;;
40995;SDS011;26723;57.478;12.066;2023-06-14T03:13:43;4.57;;;4.18;;
40995;SDS011;26723;57.478;12.066;2023-06-14T03:16:53;4.32;;;4.03;;
40995;SDS011;26723;57.478;12.066;2023-06-14T03:20:04;3.88;;;3.40;;
40995;SDS011;26723;57.478;12.066;2023-06-14T03:23:13;6.65;;;4.20;;
40995;SDS011;26723;57.478;12.066;2023-06-14T03:26:22;4.00;;;3.80;;
40995;SDS011;26723;57.478;12.066;2023-06-14T03:29:36;4.35;;;3.55;;
40995;SDS011;26723;57.478;12.066;2023-06-14T03:32:45;3.88;;;3.55;;
40995;SDS011;26723;57.478;12.066;2023-06-14T03:35:54;3.90;;;3.60;;
40995;SDS011;26723;57.478;12.066;2023-06-14T03:39:03;4.05;;;3.75;;
40995;SDS011;26723;57.478;12.066;2023-06-14T03:42:12;4.28;;;3.97;;
40995;SDS011;26723;57.478;12.066;2023-06-14T03:45:23;3.90;;;3.60;;
40995;SDS011;26723;57.478;12.066;2023-06-14T03:48:32;3.85;;;3.65;;
40995;SDS011;26723;57.478;12.066;2023-06-14T03:51:42;4.25;;;3.95;;
40995;SDS011;26723;57.478;12.066;2023-06-14T03:54:51;3.80;;;3.60;;
40995;SDS011;26723;57.478;12.066;2023-06-14T03:58:03;4.80;;;3.95;;
40995;SDS011;26723;57.478;12.066;2023-06-14T04:01:13;4.13;;;3.72;;
40995;SDS011;26723;57.478;12.066;2023-06-14T04:04:22;3.95;;;3.45;;
40995;SDS011;26723;57.478;12.066;2023-06-14T04:07:37;5.25;;;3.80;;
40995;SDS011;26723;57.478;12.066;2023-06-14T04:10:51;4.10;;;3.80;;
40995;SDS011;26723;57.478;12.066;2023-06-14T04:14:01;3.88;;;3.42;;
40995;SDS011;26723;57.478;12.066;2023-06-14T04:17:12;3.70;;;3.40;;
40995;SDS011;26723;57.478;12.066;2023-06-14T04:20:23;3.67;;;3.38;;
40995;SDS011;26723;57.478;12.066;2023-06-14T04:23:32;3.88;;;3.58;;
40995;SDS011;26723;57.478;12.066;2023-06-14T04:26:41;3.40;;;3.20;;
40995;SDS011;26723;57.478;12.066;2023-06-14T04:29:53;3.70;;;3.40;;
40995;SDS011;26723;57.478;12.066;2023-06-14T04:33:07;5.15;;;3.53;;
40995;SDS011;26723;57.478;12.066;2023-06-14T04:36:16;3.70;;;3.38;;
40995;SDS011;26723;57.478;12.066;2023-06-14T04:39:27;3.90;;;3.65;;
40995;SDS011;26723;57.478;12.066;2023-06-14T04:42:37;4.43;;;3.78;;
40995;SDS011;26723;57.478;12.066;2023-06-14T04:45:49;4.22;;;3.83;;
40995;SDS011;26723;57.478;12.066;2023-06-14T04:49:00;4.28;;;3.88;;
40995;SDS011;26723;57.478;12.066;2023-06-14T04:52:09;4.18;;;3.78;;
40995;SDS011;26723;57.478;12.066;2023-06-14T04:55:22;3.97;;;3.53;;
40995;SDS011;26723;57.478;12.066;2023-06-14T04:58:31;3.50;;;3.20;;
40995;SDS011;26723;57.478;12.066;2023-06-14T05:01:40;3.95;;;3.60;;
40995;SDS011;26723;57.478;12.066;2023-06-14T05:04:50;3.42;;;3.13;;
40995;SDS011;26723;57.478;12.066;2023-06-14T05:08:00;2.83;;;2.72;;
40995;SDS011;26723;57.478;12.066;2023-06-14T05:11:08;3.10;;;2.90;;
40995;SDS011;26723;57.478;12.066;2023-06-14T05:14:17;3.30;;;3.00;;
40995;SDS011;26723;57.478;12.066;2023-06-14T05:17:26;2.97;;;2.78;;
40995;SDS011;26723;57.478;12.066;2023-06-14T05:20:37;3.67;;;3.38;;
40995;SDS011;26723;57.478;12.066;2023-06-14T05:23:45;5.25;;;3.00;;
40995;SDS011;26723;57.478;12.066;2023-06-14T05:26:54;4.40;;;3.88;;
40995;SDS011;26723;57.478;12.066;2023-06-14T05:30:03;2.90;;;2.70;;
40995;SDS011;26723;57.478;12.066;2023-06-14T05:33:13;3.25;;;3.00;;
40995;SDS011;26723;57.478;12.066;2023-06-14T05:36:23;3.70;;;3.40;;
40995;SDS011;26723;57.478;12.066;2023-06-14T05:39:33;3.60;;;3.30;;
40995;SDS011;26723;57.478;12.066;2023-06-14T05:42:42;4.40;;;2.63;;
40995;SDS011;26723;57.478;12.066;2023-06-14T05:45:50;4.05;;;2.78;;
40995;SDS011;26723;57.478;12.066;2023-06-14T05:48:59;3.55;;;2.20;;
40995;SDS011;26723;57.478;12.066;2023-06-14T05:52:09;4.30;;;2.70;;
40995;SDS011;26723;57.478;12.066;2023-06-14T05:55:19;2.78;;;2.53;;
40995;SDS011;26723;57.478;12.066;2023-06-14T05:58:28;3.38;;;2.95;;
40995;SDS011;26723;57.478;12.066;2023-06-14T06:01:37;3.25;;;2.90;;
40995;SDS011;26723;57.478;12.066;2023-06-14T06:04:47;4.47;;;2.65;;
40995;SDS011;26723;57.478;12.066;2023-06-14T06:07:57;3.17;;;2.88;;
40995;SDS011;26723;57.478;12.066;2023-06-14T06:11:05;3.92;;;3.45;;
40995;SDS011;26723;57.478;12.066;2023-06-14T06:14:14;4.82;;;3.35;;
40995;SDS011;26723;57.478;12.066;2023-06-14T06:17:24;6.32;;;3.35;;
40995;SDS011;26723;57.478;12.066;2023-06-14T06:20:44;3.88;;;3.58;;
40995;SDS011;26723;57.478;12.066;2023-06-14T06:23:57;5.70;;;3.50;;
40995;SDS011;26723;57.478;12.066;2023-06-14T06:27:09;3.72;;;3.50;;
40995;SDS011;26723;57.478;12.066;2023-06-14T06:30:19;3.17;;;2.85;;
40995;SDS011;26723;57.478;12.066;2023-06-14T06:33:28;4.30;;;3.05;;
40995;SDS011;26723;57.478;12.066;2023-06-14T06:36:37;3.42;;;3.03;;
40995;SDS011;26723;57.478;12.066;2023-06-14T06:39:48;3.45;;;3.22;;
40995;SDS011;26723;57.478;12.066;2023-06-14T06:42:57;3.10;;;2.85;;
40995;SDS011;26723;57.478;12.066;2023-06-14T06:46:06;3.85;;;2.60;;
40995;SDS011;26723;57.478;12.066;2023-06-14T06:49:15;2.30;;;2.20;;
40995;SDS011;26723;57.478;12.066;2023-06-14T06:52:26;3.13;;;2.83;;
40995;SDS011;26723;57.478;12.066;2023-06-14T06:55:37;2.78;;;2.55;;
40995;SDS011;26723;57.478;12.066;2023-06-14T06:58:45;3.60;;;2.53;;
40995;SDS011;26723;57.478;12.066;2023-06-14T07:01:55;2.70;;;2.50;;
40995;SDS011;26723;57.478;12.066;2023-06-14T07:05:04;2.80;;;2.60;;
40995;SDS011;26723;57.478;12.066;2023-06-14T07:08:14;2.55;;;2.35;;
40995;SDS011;26723;57.478;12.066;2023-06-14T07:11:24;2.53;;;2.33;;
40995;SDS011;26723;57.478;12.066;2023-06-14T07:14:32;2.38;;;2.17;;
40995;SDS011;26723;57.478;12.066;2023-06-14T07:17:41;4.65;;;2.20;;
40995;SDS011;26723;57.478;12.066;2023-06-14T07:20:50;2.70;;;2.22;;
40995;SDS011;26723;57.478;12.066;2023-06-14T07:23:59;2.22;;;2.03;;
40995;SDS011;26723;57.478;12.066;2023-06-14T07:27:09;2.55;;;2.20;;
40995;SDS011;26723;57.478;12.066;2023-06-14T07:30:21;2.03;;;1.92;;
40995;SDS011;26723;57.478;12.066;2023-06-14T07:33:32;3.00;;;2.20;;
40995;SDS011;26723;57.478;12.066;2023-06-14T07:36:41;2.15;;;2.05;;
40995;SDS011;26723;57.478;12.066;2023-06-14T07:39:51;2.65;;;1.98;;
40995;SDS011;26723;57.478;12.066;2023-06-14T07:43:01;2.50;;;2.00;;
40995;SDS011;26723;57.478;12.066;2023-06-14T07:46:09;2.00;;;1.90;;
40995;SDS011;26723;57.478;12.066;2023-06-14T07:49:18;2.42;;;2.22;;
40995;SDS011;26723;57.478;12.066;2023-06-14T07:52:27;2.58;;;2.00;;
40995;SDS011;26723;57.478;12.066;2023-06-14T07:55:37;7.60;;;2.22;;
40995;SDS011;26723;57.478;12.066;2023-06-14T07:59:00;2.20;;;2.08;;
40995;SDS011;26723;57.478;12.066;2023-06-14T08:02:09;2.72;;;2.45;;
40995;SDS011;26723;57.478;12.066;2023-06-14T08:05:18;2.40;;;2.20;;
40995;SDS011;26723;57.478;12.066;2023-06-14T08:08:26;2.05;;;1.92;;
40995;SDS011;26723;57.478;12.066;2023-06-14T08:11:35;2.30;;;2.10;;
40995;SDS011;26723;57.478;12.066;2023-06-14T08:14:45;2.63;;;1.92;;
40995;SDS011;26723;57.478;12.066;2023-06-14T08:18:07;2.03;;;1.90;;
40995;SDS011;26723;57.478;12.066;2023-06-14T08:21:16;2.00;;;1.90;;
40995;SDS011;26723;57.478;12.066;2023-06-14T08:24:24;2.53;;;2.05;;
40995;SDS011;26723;57.478;12.066;2023-06-14T08:27:35;2.47;;;2.17;;
40995;SDS011;26723;57.478;12.066;2023-06-14T08:30:45;3.47;;;1.95;;
40995;SDS011;26723;57.478;12.066;2023-06-14T08:33:54;2.40;;;2.20;;
40995;SDS011;26723;57.478;12.066;2023-06-14T08:37:03;2.50;;;2.30;;
40995;SDS011;26723;57.478;12.066;2023-06-14T08:40:17;2.30;;;2.20;;
40995;SDS011;26723;57.478;12.066;2023-06-14T08:43:27;2.65;;;1.90;;
40995;SDS011;26723;57.478;12.066;2023-06-14T08:46:38;2.45;;;2.08;;
40995;SDS011;26723;57.478;12.066;2023-06-14T08:49:48;2.97;;;2.40;;
40995;SDS011;26723;57.478;12.066;2023-06-14T08:52:57;2.08;;;1.80;;
40995;SDS011;26723;57.478;12.066;2023-06-14T08:56:11;2.17;;;2.08;;
40995;SDS011;26723;57.478;12.066;2023-06-14T08:59:21;3.67;;;2.28;;
40995;SDS011;26723;57.478;12.066;2023-06-14T09:02:33;2.40;;;2.20;;
40995;SDS011;26723;57.478;12.066;2023-06-14T09:05:42;3.00;;;2.17;;
40995;SDS011;26723;57.478;12.066;2023-06-14T09:08:52;2.85;;;2.30;;
40995;SDS011;26723;57.478;12.066;2023-06-14T09:12:03;2.00;;;1.90;;
40995;SDS011;26723;57.478;12.066;2023-06-14T09:15:14;2.90;;;2.58;;
40995;SDS011;26723;57.478;12.066;2023-06-14T09:18:26;2.03;;;1.90;;
40995;SDS011;26723;57.478;12.066;2023-06-14T09:21:43;2.63;;;2.15;;
40995;SDS011;26723;57.478;12.066;2023-06-14T09:24:55;2.05;;;1.90;;
40995;SDS011;26723;57.478;12.066;2023-06-14T09:28:06;2.67;;;1.95;;
40995;SDS011;26723;57.478;12.066;2023-06-14T09:31:16;2.88;;;2.10;;
40995;SDS011;26723;57.478;12.066;2023-06-14T09:34:27;2.08;;;1.90;;
40995;SDS011;26723;57.478;12.066;2023-06-14T09:37:36;3.05;;;2.20;;
40995;SDS011;26723;57.478;12.066;2023-06-14T09:40:45;1.95;;;1.80;;
40995;SDS011;26723;57.478;12.066;2023-06-14T09:43:54;2.00;;;1.90;;
40995;SDS011;26723;57.478;12.066;2023-06-14T09:47:04;2.20;;;2.00;;
40995;SDS011;26723;57.478;12.066;2023-06-14T09:50:14;2.65;;;2.22;;
40995;SDS011;26723;57.478;12.066;2023-06-14T09:53:23;2.22;;;2.03;;
40995;SDS011;26723;57.478;12.066;2023-06-14T09:56:36;2.15;;;2.00;;
40995;SDS011;26723;57.478;12.066;2023-06-14T09:59:50;2.22;;;2.00;;
40995;SDS011;26723;57.478;12.066;2023-06-14T10:03:03;3.10;;;1.98;;
40995;SDS011;26723;57.478;12.066;2023-06-14T10:06:23;2.00;;;1.90;;
40995;SDS011;26723;57.478;12.066;2023-06-14T10:09:34;2.10;;;1.98;;
40995;SDS011;26723;57.478;12.066;2023-06-14T10:12:43;2.22;;;2.05;;
40995;SDS011;26723;57.478;12.066;2023-06-14T10:15:54;2.15;;;2.05;;
40995;SDS011;26723;57.478;12.066;2023-06-14T10:19:11;2.95;;;1.90;;
40995;SDS011;26723;57.478;12.066;2023-06-14T10:22:29;2.00;;;1.90;;
40995;SDS011;26723;57.478;12.066;2023-06-14T10:25:42;2.30;;;2.13;;
40995;SDS011;26723;57.478;12.066;2023-06-14T10:28:58;2.55;;;2.10;;
40995;SDS011;26723;57.478;12.066;2023-06-14T10:32:08;1.90;;;1.80;;
40995;SDS011;26723;57.478;12.066;2023-06-14T10:35:17;2.05;;;1.90;;
40995;SDS011;26723;57.478;12.066;2023-06-14T10:38:29;2.38;;;1.90;;
40995;SDS011;26723;57.478;12.066;2023-06-14T10:41:40;2.70;;;2.20;;
40995;SDS011;26723;57.478;12.066;2023-06-14T10:44:49;2.05;;;1.95;;
40995;SDS011;26723;57.478;12.066;2023-06-14T10:47:58;2.75;;;2.40;;
40995;SDS011;26723;57.478;12.066;2023-06-14T10:51:14;2.63;;;1.92;;
40995;SDS011;26723;57.478;12.066;2023-06-14T10:54:30;2.30;;;2.20;;
40995;SDS011;26723;57.478;12.066;2023-06-14T10:57:39;2.08;;;1.90;;
40995;SDS011;26723;57.478;12.066;2023-06-14T11:00:52;3.30;;;2.05;;
40995;SDS011;26723;57.478;12.066;2023-06-14T11:04:06;2.13;;;2.03;;
40995;SDS011;26723;57.478;12.066;2023-06-14T11:07:22;2.58;;;2.30;;
40995;SDS011;26723;57.478;12.066;2023-06-14T11:10:47;2.75;;;2.13;;
40995;SDS011;26723;57.478;12.066;2023-06-14T11:13:57;2.47;;;2.28;;
40995;SDS011;26723;57.478;12.066;2023-06-14T11:17:07;2.40;;;2.20;;
40995;SDS011;26723;57.478;12.066;2023-06-14T11:20:16;2.53;;;2.33;;
40995;SDS011;26723;57.478;12.066;2023-06-14T11:23:29;2.33;;;2.13;;
40995;SDS011;26723;57.478;12.066;2023-06-14T11:26:39;2.63;;;2.05;;
40995;SDS011;26723;57.478;12.066;2023-06-14T11:29:49;2.53;;;2.17;;
40995;SDS011;26723;57.478;12.066;2023-06-14T11:36:54;2.97;;;2.20;;
40995;SDS011;26723;57.478;12.066;2023-06-14T11:40:06;3.22;;;2.33;;
40995;SDS011;26723;57.478;12.066;2023-06-14T11:43:25;2.78;;;2.28;;
40995;SDS011;26723;57.478;12.066;2023-06-14T11:46:36;2.40;;;2.20;;
40995;SDS011;26723;57.478;12.066;2023-06-14T11:49:45;3.38;;;2.28;;
40995;SDS011;26723;57.478;12.066;2023-06-14T11:52:54;2.35;;;2.22;;
40995;SDS011;26723;57.478;12.066;2023-06-14T11:56:04;2.53;;;2.33;;
40995;SDS011;26723;57.478;12.066;2023-06-14T11:59:15;2.55;;;2.45;;
40995;SDS011;26723;57.478;12.066;2023-06-14T12:02:23;2.65;;;2.45;;
40995;SDS011;26723;57.478;12.066;2023-06-14T12:05:34;2.50;;;2.30;;
40995;SDS011;26723;57.478;12.066;2023-06-14T12:08:43;4.60;;;2.78;;
40995;SDS011;26723;57.478;12.066;2023-06-14T12:11:59;2.55;;;2.38;;
40995;SDS011;26723;57.478;12.066;2023-06-14T12:15:11;3.30;;;2.40;;
40995;SDS011;26723;57.478;12.066;2023-06-14T12:18:21;2.63;;;2.42;;
40995;SDS011;26723;57.478;12.066;2023-06-14T12:21:39;2.95;;;2.65;;
40995;SDS011;26723;57.478;12.066;2023-06-14T12:24:48;2.88;;;2.33;;
40995;SDS011;26723;57.478;12.066;2023-06-14T12:27:57;2.55;;;2.40;;
40995;SDS011;26723;57.478;12.066;2023-06-14T12:31:10;2.47;;;2.38;;
40995;SDS011;26723;57.478;12.066;2023-06-14T12:34:20;3.00;;;2.80;;
40995;SDS011;26723;57.478;12.066;2023-06-14T12:37:29;3.88;;;2.50;;
40995;SDS011;26723;57.478;12.066;2023-06-14T12:40:37;2.42;;;2.22;;
40995;SDS011;26723;57.478;12.066;2023-06-14T12:43:46;4.68;;;2.50;;
40995;SDS011;26723;57.478;12.066;2023-06-14T12:46:56;2.85;;;2.60;;
40995;SDS011;26723;57.478;12.066;2023-06-14T12:50:06;2.60;;;2.40;;
40995;SDS011;26723;57.478;12.066;2023-06-14T12:53:15;2.80;;;2.53;;
40995;SDS011;26723;57.478;12.066;2023-06-14T12:56:24;3.08;;;2.60;;
40995;SDS011;26723;57.478;12.066;2023-06-14T12:59:32;2.90;;;2.20;;
40995;SDS011;26723;57.478;12.066;2023-06-14T13:02:42;2.97;;;2.40;;
40995;SDS011;26723;57.478;12.066;2023-06-14T13:05:52;2.47;;;2.28;;
40995;SDS011;26723;57.478;12.066;2023-06-14T13:09:00;3.63;;;2.40;;
40995;SDS011;26723;57.478;12.066;2023-06-14T13:12:10;2.28;;;2.13;;
40995;SDS011;26723;57.478;12.066;2023-06-14T13:15:19;2.35;;;2.15;;
40995;SDS011;26723;57.478;12.066;2023-06-14T13:18:29;2.42;;;2.30;;
40995;SDS011;26723;57.478;12.066;2023-06-14T13:21:38;2.63;;;2.40;;
40995;SDS011;26723;57.478;12.066;2023-06-14T13:24:47;2.58;;;2.47;;
40995;SDS011;26723;57.478;12.066;2023-06-14T13:27:55;2.35;;;2.20;;
40995;SDS011;26723;57.478;12.066;2023-06-14T13:31:04;2.58;;;2.42;;
40995;SDS011;26723;57.478;12.066;2023-06-14T13:34:19;3.55;;;2.30;;
40995;SDS011;26723;57.478;12.066;2023-06-14T13:37:28;2.63;;;2.42;;
40995;SDS011;26723;57.478;12.066;2023-06-14T13:40:37;2.30;;;2.10;;
40995;SDS011;26723;57.478;12.066;2023-06-14T13:43:45;2.42;;;2.30;;
40995;SDS011;26723;57.478;12.066;2023-06-14T13:46:54;2.55;;;2.35;;
40995;SDS011;26723;57.478;12.066;2023-06-14T13:50:05;2.60;;;2.50;;
40995;SDS011;26723;57.478;12.066;2023-06-14T13:53:15;3.55;;;2.17;;
40995;SDS011;26723;57.478;12.066;2023-06-14T13:56:26;2.65;;;2.55;;
40995;SDS011;26723;57.478;12.066;2023-06-14T13:59:34;3.35;;;2.63;;
40995;SDS011;26723;57.478;12.066;2023-06-14T14:02:43;2.47;;;2.28;;
40995;SDS011;26723;57.478;12.066;2023-06-14T14:05:53;2.78;;;2.47;;
40995;SDS011;26723;57.478;12.066;2023-06-14T14:09:03;2.70;;;2.50;;
40995;SDS011;26723;57.478;12.066;2023-06-14T14:12:11;2.63;;;2.40;;
40995;SDS011;26723;57.478;12.066;2023-06-14T14:15:21;3.50;;;2.45;;
40995;SDS011;26723;57.478;12.066;2023-06-14T14:18:29;2.55;;;2.33;;
40995;SDS011;26723;57.478;12.066;2023-06-14T14:21:41;2.60;;;2.40;;
40995;SDS011;26723;57.478;12.066;2023-06-14T14:24:50;5.97;;;2.40;;
40995;SDS011;26723;57.478;12.066;2023-06-14T14:27:58;2.80;;;2.60;;
40995;SDS011;26723;57.478;12.066;2023-06-14T14:31:07;2.90;;;2.67;;
40995;SDS011;26723;57.478;12.066;2023-06-14T14:34:16;2.78;;;2.47;;
40995;SDS011;26723;57.478;12.066;2023-06-14T14:37:30;2.42;;;2.30;;
40995;SDS011;26723;57.478;12.066;2023-06-14T14:40:40;2.70;;;2.50;;
40995;SDS011;26723;57.478;12.066;2023-06-14T14:43:49;2.78;;;2.40;;
40995;SDS011;26723;57.478;12.066;2023-06-14T14:46:57;2.65;;;2.45;;
40995;SDS011;26723;57.478;12.066;2023-06-14T14:50:06;3.55;;;2.47;;
40995;SDS011;26723;57.478;12.066;2023-06-14T14:53:18;2.53;;;2.33;;
40995;SDS011;26723;57.478;12.066;2023-06-14T14:56:27;3.35;;;3.03;;
40995;SDS011;26723;57.478;12.066;2023-06-14T14:59:36;2.90;;;2.70;;
40995;SDS011;26723;57.478;12.066;2023-06-14T15:02:45;4.25;;;2.72;;
40995;SDS011;26723;57.478;12.066;2023-06-14T15:05:54;2.92;;;2.70;;
40995;SDS011;26723;57.478;12.066;2023-06-14T15:09:04;2.65;;;2.38;;
40995;SDS011;26723;57.478;12.066;2023-06-14T15:12:13;2.67;;;2.47;;
40995;SDS011;26723;57.478;12.066;2023-06-14T15:15:22;2.90;;;2.70;;
40995;SDS011;26723;57.478;12.066;2023-06-14T15:18:31;4.20;;;2.83;;
40995;SDS011;26723;57.478;12.066;2023-06-14T15:21:39;2.92;;;2.67;;
40995;SDS011;26723;57.478;12.066;2023-06-14T15:24:49;5.75;;;3.10;;
40995;SDS011;26723;57.478;12.066;2023-06-14T15:27:58;2.88;;;2.63;;
40995;SDS011;26723;57.478;12.066;2023-06-14T15:31:08;2.80;;;2.60;;
40995;SDS011;26723;57.478;12.066;2023-06-14T15:34:17;4.22;;;2.70;;
40995;SDS011;26723;57.478;12.066;2023-06-14T15:37:26;3.72;;;2.67;;
40995;SDS011;26723;57.478;12.066;2023-06-14T15:40:36;2.90;;;2.70;;
40995;SDS011;26723;57.478;12.066;2023-06-14T15:43:44;3.13;;;2.78;;
40995;SDS011;26723;57.478;12.066;2023-06-14T15:46:53;4.35;;;2.67;;
40995;SDS011;26723;57.478;12.066;2023-06-14T15:50:02;4.18;;;2.75;;
40995;SDS011;26723;57.478;12.066;2023-06-14T15:53:14;2.92;;;2.70;;
40995;SDS011;26723;57.478;12.066;2023-06-14T15:56:24;3.00;;;2.70;;
40995;SDS011;26723;57.478;12.066;2023-06-14T15:59:35;3.00;;;2.80;;
40995;SDS011;26723;57.478;12.066;2023-06-14T16:02:43;3.15;;;2.72;;
40995;SDS011;26723;57.478;12.066;2023-06-14T16:05:52;2.97;;;2.78;;
40995;SDS011;26723;57.478;12.066;2023-06-14T16:09:01;2.97;;;2.70;;
40995;SDS011;26723;57.478;12.066;2023-06-14T16:12:12;2.78;;;2.60;;
40995;SDS011;26723;57.478;12.066;2023-06-14T16:15:20;5.00;;;3.10;;
40995;SDS011;26723;57.478;12.066;2023-06-14T16:18:29;2.38;;;2.17;;
40995;SDS011;26723;57.478;12.066;2023-06-14T16:21:40;3.13;;;2.38;;
40995;SDS011;26723;57.478;12.066;2023-06-14T16:24:49;2.97;;;2.70;;
40995;SDS011;26723;57.478;12.066;2023-06-14T16:28:00;11.25;;;6.88;;
40995;SDS011;26723;57.478;12.066;2023-06-14T16:31:09;24.55;;;11.90;;
40995;SDS011;26723;57.478;12.066;2023-06-14T16:34:17;18.65;;;10.32;;
40995;SDS011;26723;57.478;12.066;2023-06-14T16:37:26;5.15;;;3.25;;
40995;SDS011;26723;57.478;12.066;2023-06-14T16:40:35;3.28;;;2.60;;
40995;SDS011;26723;57.478;12.066;2023-06-14T16:43:45;2.60;;;2.40;;
40995;SDS011;26723;57.478;12.066;2023-06-14T16:46:54;4.00;;;2.15;;
40995;SDS011;26723;57.478;12.066;2023-06-14T16:50:02;2.97;;;2.58;;
40995;SDS011;26723;57.478;12.066;2023-06-14T16:53:11;4.20;;;3.80;;
40995;SDS011;26723;57.478;12.066;2023-06-14T16:56:20;4.47;;;4.07;;
40995;SDS011;26723;57.478;12.066;2023-06-14T16:59:34;3.00;;;2.53;;
40995;SDS011;26723;57.478;12.066;2023-06-14T17:02:43;2.58;;;2.40;;
40995;SDS011;26723;57.478;12.066;2023-06-14T17:05:53;2.70;;;2.50;;
40995;SDS011;26723;57.478;12.066;2023-06-14T17:09:02;2.45;;;2.35;;
40995;SDS011;26723;57.478;12.066;2023-06-14T17:12:11;2.65;;;2.45;;
40995;SDS011;26723;57.478;12.066;2023-06-14T17:15:21;2.70;;;2.50;;
40995;SDS011;26723;57.478;12.066;2023-06-14T17:18:29;2.75;;;2.50;;
40995;SDS011;26723;57.478;12.066;2023-06-14T17:21:38;2.67;;;2.47;;
40995;SDS011;26723;57.478;12.066;2023-06-14T17:24:48;2.50;;;2.30;;
40995;SDS011;26723;57.478;12.066;2023-06-14T17:27:58;2.72;;;2.53;;
40995;SDS011;26723;57.478;12.066;2023-06-14T17:31:08;2.75;;;2.40;;
40995;SDS011;26723;57.478;12.066;2023-06-14T17:34:16;2.63;;;2.50;;
40995;SDS011;26723;57.478;12.066;2023-06-14T17:37:25;3.50;;;3.20;;
40995;SDS011;26723;57.478;12.066;2023-06-14T17:40:34;3.58;;;2.80;;
40995;SDS011;26723;57.478;12.066;2023-06-14T17:43:56;2.47;;;2.30;;
40995;SDS011;26723;57.478;12.066;2023-06-14T17:47:06;2.47;;;2.38;;
40995;SDS011;26723;57.478;12.066;2023-06-14T17:50:18;2.60;;;2.40;;
40995;SDS011;26723;57.478;12.066;2023-06-14T17:53:26;2.83;;;2.50;;
40995;SDS011;26723;57.478;12.066;2023-06-14T17:56:35;2.35;;;2.25;;
40995;SDS011;26723;57.478;12.066;2023-06-14T17:59:44;3.63;;;2.40;;
40995;SDS011;26723;57.478;12.066;2023-06-14T18:02:54;2.60;;;2.30;;
40995;SDS011;26723;57.478;12.066;2023-06-14T18:06:05;3.22;;;3.03;;
40995;SDS011;26723;57.478;12.066;2023-06-14T18:09:13;2.88;;;2.67;;
40995;SDS011;26723;57.478;12.066;2023-06-14T18:12:22;2.75;;;2.60;;
40995;SDS011;26723;57.478;12.066;2023-06-14T18:15:30;2.97;;;2.50;;
40995;SDS011;26723;57.478;12.066;2023-06-14T18:18:40;5.28;;;3.15;;
40995;SDS011;26723;57.478;12.066;2023-06-14T18:22:03;2.90;;;2.58;;
40995;SDS011;26723;57.478;12.066;2023-06-14T18:25:12;2.90;;;2.25;;
40995;SDS011;26723;57.478;12.066;2023-06-14T18:28:22;3.25;;;2.45;;
40995;SDS011;26723;57.478;12.066;2023-06-14T18:31:33;3.67;;;2.38;;
40995;SDS011;26723;57.478;12.066;2023-06-14T18:34:44;2.60;;;2.38;;
40995;SDS011;26723;57.478;12.066;2023-06-14T18:37:52;2.50;;;2.40;;
40995;SDS011;26723;57.478;12.066;2023-06-14T18:41:01;2.92;;;2.50;;
40995;SDS011;26723;57.478;12.066;2023-06-14T18:44:10;2.97;;;2.28;;
40995;SDS011;26723;57.478;12.066;2023-06-14T18:47:18;3.42;;;2.40;;
40995;SDS011;26723;57.478;12.066;2023-06-14T18:50:28;3.42;;;2.50;;